sensor_id;sensor_type;location;lat;lon;timestamp;temperature;humidity
5200;DHT22;2619;47.868;11.892;2023-08-01T00:01:08;17.80;99.90
5200;DHT22;2619;47.868;11.892;2023-08-01T00:03:33;17.80;99.90
5200;DHT22;2619;47.868;11.892;2023-08-01T00:05:59;17.80;99.90
5200;DHT22;2619;47.868;11.892;2023-08-01T00:08:25;17.80;99.90
5200;DHT22;2619;47.868;11.892;2023-08-01T00:10:50;17.70;99.90
5200;DHT22;2619;47.868;11.892;2023-08-01T00:13:16;17.60;99.90
5200;DHT22;2619;47.868;11.892;2023-08-01T00:15:41;17.50;99.90
5200;DHT22;2619;47.868;11.892;2023-08-01T00:18:07;17.40;99.90
5200;DHT22;2619;47.868;11.892;2023-08-01T00:20:32;17.40;99.90
5200;DHT22;2619;47.868;11.892;2023-08-01T00:22:58;17.30;99.90
5200;DHT22;2619;47.868;11.892;2023-08-01T00:25:23;17.30;99.90
5200;DHT22;2619;47.868;11.892;2023-08-01T00:27:49;17.30;99.90
5200;DHT22;2619;47.868;11.892;2023-08-01T00:30:16;17.20;99.90
5200;DHT22;2619;47.868;11.892;2023-08-01T00:32:42;17.20;99.90
5200;DHT22;2619;47.868;11.892;2023-08-01T00:35:08;17.20;99.90
5200;DHT22;2619;47.868;11.892;2023-08-01T00:37:33;17.20;99.90
5200;DHT22;2619;47.868;11.892;2023-08-01T00:39:59;17.20;99.90
5200;DHT22;2619;47.868;11.892;2023-08-01T00:42:24;17.20;99.90
5200;DHT22;2619;47.868;11.892;2023-08-01T00:44:50;17.20;99.90
5200;DHT22;2619;47.868;11.892;2023-08-01T00:47:16;17.30;99.90
5200;DHT22;2619;47.868;11.892;2023-08-01T00:49:42;17.30;99.90
5200;DHT22;2619;47.868;11.892;2023-08-01T00:52:08;17.40;99.90
5200;DHT22;2619;47.868;11.892;2023-08-01T00:54:34;17.50;99.90
5200;DHT22;2619;47.868;11.892;2023-08-01T00:57:03;17.60;99.90
5200;DHT22;2619;47.868;11.892;2023-08-01T00:59:29;17.60;99.90
5200;DHT22;2619;47.868;11.892;2023-08-01T01:01:55;17.70;99.90
5200;DHT22;2619;47.868;11.892;2023-08-01T01:04:20;17.80;99.90
5200;DHT22;2619;47.868;11.892;2023-08-01T01:06:51;17.90;99.90
5200;DHT22;2619;47.868;11.892;2023-08-01T01:09:19;18.00;99.90
5200;DHT22;2619;47.868;11.892;2023-08-01T01:11:46;18.00;99.90
5200;DHT22;2619;47.868;11.892;2023-08-01T01:14:12;17.90;99.90
5200;DHT22;2619;47.868;11.892;2023-08-01T01:16:37;17.90;99.90
5200;DHT22;2619;47.868;11.892;2023-08-01T01:19:09;17.80;99.90
5200;DHT22;2619;47.868;11.892;2023-08-01T01:21:37;17.70;99.90
5200;DHT22;2619;47.868;11.892;2023-08-01T01:24:05;17.70;99.90
5200;DHT22;2619;47.868;11.892;2023-08-01T01:26:32;17.70;99.90
5200;DHT22;2619;47.868;11.892;2023-08-01T01:28:58;17.70;99.90
5200;DHT22;2619;47.868;11.892;2023-08-01T01:31:24;17.70;99.90
5200;DHT22;2619;47.868;11.892;2023-08-01T01:33:50;17.70;99.90
5200;DHT22;2619;47.868;11.892;2023-08-01T01:36:16;17.60;99.90
5200;DHT22;2619;47.868;11.892;2023-08-01T01:38:42;17.60;99.90
5200;DHT22;2619;47.868;11.892;2023-08-01T01:41:07;17.60;99.90
5200;DHT22;2619;47.868;11.892;2023-08-01T01:43:33;17.60;99.90
5200;DHT22;2619;47.868;11.892;2023-08-01T01:45:58;17.60;99.90
5200;DHT22;2619;47.868;11.892;2023-08-01T01:48:24;17.70;99.90
5200;DHT22;2619;47.868;11.892;2023-08-01T01:50:49;17.70;99.90
5200;DHT22;2619;47.868;11.892;2023-08-01T01:53:15;17.60;99.90
5200;DHT22;2619;47.868;11.892;2023-08-01T01:55:40;17.60;99.90
5200;DHT22;2619;47.868;11.892;2023-08-01T01:58:06;17.60;99.90
5200;DHT22;2619;47.868;11.892;2023-08-01T02:00:31;17.50;99.90
5200;DHT22;2619;47.868;11.892;2023-08-01T02:02:57;17.50;99.90
5200;DHT22;2619;47.868;11.892;2023-08-01T02:05:23;17.50;99.90
5200;DHT22;2619;47.868;11.892;2023-08-01T02:07:48;17.50;99.90
5200;DHT22;2619;47.868;11.892;2023-08-01T02:10:14;17.60;99.90
5200;DHT22;2619;47.868;11.892;2023-08-01T02:12:39;17.50;99.90
5200;DHT22;2619;47.868;11.892;2023-08-01T02:15:05;17.60;99.90
5200;DHT22;2619;47.868;11.892;2023-08-01T02:17:31;17.60;99.90
5200;DHT22;2619;47.868;11.892;2023-08-01T02:19:57;17.40;99.90
5200;DHT22;2619;47.868;11.892;2023-08-01T02:22:24;17.40;99.90
5200;DHT22;2619;47.868;11.892;2023-08-01T02:24:49;17.40;99.90
5200;DHT22;2619;47.868;11.892;2023-08-01T02:27:15;17.30;99.90
5200;DHT22;2619;47.868;11.892;2023-08-01T02:29:40;17.20;99.90
5200;DHT22;2619;47.868;11.892;2023-08-01T02:32:06;17.20;99.90
5200;DHT22;2619;47.868;11.892;2023-08-01T02:34:32;17.00;99.90
5200;DHT22;2619;47.868;11.892;2023-08-01T02:36:57;16.90;99.90
5200;DHT22;2619;47.868;11.892;2023-08-01T02:39:23;16.80;99.90
5200;DHT22;2619;47.868;11.892;2023-08-01T02:41:48;16.70;99.90
5200;DHT22;2619;47.868;11.892;2023-08-01T02:44:14;16.70;99.90
5200;DHT22;2619;47.868;11.892;2023-08-01T02:46:40;16.60;99.90
5200;DHT22;2619;47.868;11.892;2023-08-01T02:49:05;16.70;99.90
5200;DHT22;2619;47.868;11.892;2023-08-01T02:51:31;16.60;99.90
5200;DHT22;2619;47.868;11.892;2023-08-01T02:53:56;16.60;99.90
5200;DHT22;2619;47.868;11.892;2023-08-01T02:56:22;16.60;99.90
5200;DHT22;2619;47.868;11.892;2023-08-01T02:58:47;16.50;99.90
5200;DHT22;2619;47.868;11.892;2023-08-01T03:01:13;16.50;99.90
5200;DHT22;2619;47.868;11.892;2023-08-01T03:03:39;16.50;99.90
5200;DHT22;2619;47.868;11.892;2023-08-01T03:06:04;16.50;99.90
5200;DHT22;2619;47.868;11.892;2023-08-01T03:08:30;16.50;99.90
5200;DHT22;2619;47.868;11.892;2023-08-01T03:10:55;16.50;99.90
5200;DHT22;2619;47.868;11.892;2023-08-01T03:13:22;16.50;99.90
5200;DHT22;2619;47.868;11.892;2023-08-01T03:15:47;16.50;99.90
5200;DHT22;2619;47.868;11.892;2023-08-01T03:18:13;16.50;99.90
5200;DHT22;2619;47.868;11.892;2023-08-01T03:20:38;16.50;99.90
5200;DHT22;2619;47.868;11.892;2023-08-01T03:23:04;16.50;99.90
5200;DHT22;2619;47.868;11.892;2023-08-01T03:25:30;16.50;99.90
5200;DHT22;2619;47.868;11.892;2023-08-01T03:27:56;16.50;99.90
5200;DHT22;2619;47.868;11.892;2023-08-01T03:30:22;16.50;99.90
5200;DHT22;2619;47.868;11.892;2023-08-01T03:32:48;16.40;99.90
5200;DHT22;2619;47.868;11.892;2023-08-01T03:35:14;16.40;99.90
5200;DHT22;2619;47.868;11.892;2023-08-01T03:37:40;16.40;99.90
5200;DHT22;2619;47.868;11.892;2023-08-01T03:40:06;16.40;99.90
5200;DHT22;2619;47.868;11.892;2023-08-01T03:42:38;16.50;99.90
5200;DHT22;2619;47.868;11.892;2023-08-01T03:45:06;16.40;99.90
5200;DHT22;2619;47.868;11.892;2023-08-01T03:47:32;16.40;99.90
5200;DHT22;2619;47.868;11.892;2023-08-01T03:49:57;16.50;99.90
5200;DHT22;2619;47.868;11.892;2023-08-01T03:52:23;16.50;99.90
5200;DHT22;2619;47.868;11.892;2023-08-01T03:54:49;16.50;99.90
5200;DHT22;2619;47.868;11.892;2023-08-01T03:57:14;16.60;99.90
5200;DHT22;2619;47.868;11.892;2023-08-01T03:59:40;16.60;99.90
5200;DHT22;2619;47.868;11.892;2023-08-01T04:02:06;16.50;99.90
5200;DHT22;2619;47.868;11.892;2023-08-01T04:04:31;16.50;99.90
5200;DHT22;2619;47.868;11.892;2023-08-01T04:06:57;16.50;99.90
5200;DHT22;2619;47.868;11.892;2023-08-01T04:09:23;16.50;99.90
5200;DHT22;2619;47.868;11.892;2023-08-01T04:11:48;16.50;99.90
5200;DHT22;2619;47.868;11.892;2023-08-01T04:14:14;16.50;99.90
5200;DHT22;2619;47.868;11.892;2023-08-01T04:16:40;16.50;99.90
5200;DHT22;2619;47.868;11.892;2023-08-01T04:19:05;16.60;99.90
5200;DHT22;2619;47.868;11.892;2023-08-01T04:21:31;16.50;99.90
5200;DHT22;2619;47.868;11.892;2023-08-01T04:23:56;16.60;99.90
5200;DHT22;2619;47.868;11.892;2023-08-01T04:26:22;16.60;99.90
5200;DHT22;2619;47.868;11.892;2023-08-01T04:28:48;16.60;99.90
5200;DHT22;2619;47.868;11.892;2023-08-01T04:31:14;16.70;99.90
5200;DHT22;2619;47.868;11.892;2023-08-01T04:33:39;16.70;99.90
5200;DHT22;2619;47.868;11.892;2023-08-01T04:36:05;16.70;99.90
5200;DHT22;2619;47.868;11.892;2023-08-01T04:38:30;16.70;99.90
5200;DHT22;2619;47.868;11.892;2023-08-01T04:40:56;16.70;99.90
5200;DHT22;2619;47.868;11.892;2023-08-01T04:43:21;16.70;99.90
5200;DHT22;2619;47.868;11.892;2023-08-01T04:45:47;16.70;99.90
5200;DHT22;2619;47.868;11.892;2023-08-01T04:48:12;16.70;99.90
5200;DHT22;2619;47.868;11.892;2023-08-01T04:50:38;16.70;99.90
5200;DHT22;2619;47.868;11.892;2023-08-01T04:53:04;16.70;99.90
5200;DHT22;2619;47.868;11.892;2023-08-01T04:55:29;16.70;99.90
5200;DHT22;2619;47.868;11.892;2023-08-01T04:57:55;16.80;99.90
5200;DHT22;2619;47.868;11.892;2023-08-01T05:00:20;16.70;99.90
5200;DHT22;2619;47.868;11.892;2023-08-01T05:02:46;16.70;99.90
5200;DHT22;2619;47.868;11.892;2023-08-01T05:05:12;16.60;99.90
5200;DHT22;2619;47.868;11.892;2023-08-01T05:07:37;16.60;99.90
5200;DHT22;2619;47.868;11.892;2023-08-01T05:10:03;16.60;99.90
5200;DHT22;2619;47.868;11.892;2023-08-01T05:12:28;16.60;99.90
5200;DHT22;2619;47.868;11.892;2023-08-01T05:14:54;16.60;99.90
5200;DHT22;2619;47.868;11.892;2023-08-01T05:17:20;16.60;99.90
5200;DHT22;2619;47.868;11.892;2023-08-01T05:19:46;16.60;99.90
5200;DHT22;2619;47.868;11.892;2023-08-01T05:22:11;16.60;99.90
5200;DHT22;2619;47.868;11.892;2023-08-01T05:24:37;16.60;99.90
5200;DHT22;2619;47.868;11.892;2023-08-01T05:27:02;16.60;99.90
5200;DHT22;2619;47.868;11.892;2023-08-01T05:29:28;16.60;99.90
5200;DHT22;2619;47.868;11.892;2023-08-01T05:31:54;16.60;99.90
5200;DHT22;2619;47.868;11.892;2023-08-01T05:34:19;16.60;99.90
5200;DHT22;2619;47.868;11.892;2023-08-01T05:36:45;16.70;99.90
5200;DHT22;2619;47.868;11.892;2023-08-01T05:39:10;16.70;99.90
5200;DHT22;2619;47.868;11.892;2023-08-01T05:41:36;16.70;99.90
5200;DHT22;2619;47.868;11.892;2023-08-01T05:44:02;16.80;99.90
5200;DHT22;2619;47.868;11.892;2023-08-01T05:46:28;16.80;99.90
5200;DHT22;2619;47.868;11.892;2023-08-01T05:48:53;16.70;99.90
5200;DHT22;2619;47.868;11.892;2023-08-01T05:51:19;16.80;99.90
5200;DHT22;2619;47.868;11.892;2023-08-01T05:53:44;16.80;99.90
5200;DHT22;2619;47.868;11.892;2023-08-01T05:56:10;16.90;99.90
5200;DHT22;2619;47.868;11.892;2023-08-01T05:58:36;16.90;99.90
5200;DHT22;2619;47.868;11.892;2023-08-01T06:01:01;17.00;99.90
5200;DHT22;2619;47.868;11.892;2023-08-01T06:03:27;16.90;99.90
5200;DHT22;2619;47.868;11.892;2023-08-01T06:05:53;16.80;99.90
5200;DHT22;2619;47.868;11.892;2023-08-01T06:08:18;16.80;99.90
5200;DHT22;2619;47.868;11.892;2023-08-01T06:10:44;16.80;99.90
5200;DHT22;2619;47.868;11.892;2023-08-01T06:13:10;16.80;99.90
5200;DHT22;2619;47.868;11.892;2023-08-01T06:15:36;16.80;99.90
5200;DHT22;2619;47.868;11.892;2023-08-01T06:18:02;16.80;99.90
5200;DHT22;2619;47.868;11.892;2023-08-01T06:20:27;16.70;99.90
5200;DHT22;2619;47.868;11.892;2023-08-01T06:22:53;16.70;99.90
5200;DHT22;2619;47.868;11.892;2023-08-01T06:25:19;16.80;99.90
5200;DHT22;2619;47.868;11.892;2023-08-01T06:27:44;16.90;99.90
5200;DHT22;2619;47.868;11.892;2023-08-01T06:30:10;17.00;99.90
5200;DHT22;2619;47.868;11.892;2023-08-01T06:32:36;17.10;99.90
5200;DHT22;2619;47.868;11.892;2023-08-01T06:35:02;17.10;99.90
5200;DHT22;2619;47.868;11.892;2023-08-01T06:37:27;17.20;99.90
5200;DHT22;2619;47.868;11.892;2023-08-01T06:39:54;17.20;99.90
5200;DHT22;2619;47.868;11.892;2023-08-01T06:42:20;17.20;99.90
5200;DHT22;2619;47.868;11.892;2023-08-01T06:44:46;17.20;99.90
5200;DHT22;2619;47.868;11.892;2023-08-01T06:47:11;17.20;99.90
5200;DHT22;2619;47.868;11.892;2023-08-01T06:49:37;17.20;99.90
5200;DHT22;2619;47.868;11.892;2023-08-01T06:52:03;17.20;99.90
5200;DHT22;2619;47.868;11.892;2023-08-01T06:54:28;17.20;99.90
5200;DHT22;2619;47.868;11.892;2023-08-01T06:56:54;17.40;99.90
5200;DHT22;2619;47.868;11.892;2023-08-01T06:59:19;17.40;99.90
5200;DHT22;2619;47.868;11.892;2023-08-01T07:01:45;17.40;99.90
5200;DHT22;2619;47.868;11.892;2023-08-01T07:04:11;17.40;99.90
5200;DHT22;2619;47.868;11.892;2023-08-01T07:06:36;17.40;99.90
5200;DHT22;2619;47.868;11.892;2023-08-01T07:09:02;17.40;99.90
5200;DHT22;2619;47.868;11.892;2023-08-01T07:11:28;17.40;99.90
5200;DHT22;2619;47.868;11.892;2023-08-01T07:13:53;17.40;99.90
5200;DHT22;2619;47.868;11.892;2023-08-01T07:16:19;17.50;99.90
5200;DHT22;2619;47.868;11.892;2023-08-01T07:18:44;17.50;99.90
5200;DHT22;2619;47.868;11.892;2023-08-01T07:21:10;17.40;99.90
5200;DHT22;2619;47.868;11.892;2023-08-01T07:23:36;17.50;99.90
5200;DHT22;2619;47.868;11.892;2023-08-01T07:26:02;17.50;99.90
5200;DHT22;2619;47.868;11.892;2023-08-01T07:28:27;17.50;99.90
5200;DHT22;2619;47.868;11.892;2023-08-01T07:33:25;17.30;99.90
5200;DHT22;2619;47.868;11.892;2023-08-01T07:35:51;17.40;99.90
5200;DHT22;2619;47.868;11.892;2023-08-01T07:38:17;17.40;99.90
5200;DHT22;2619;47.868;11.892;2023-08-01T07:40:42;17.60;99.90
5200;DHT22;2619;47.868;11.892;2023-08-01T07:43:08;17.70;99.90
5200;DHT22;2619;47.868;11.892;2023-08-01T07:45:34;17.70;99.90
5200;DHT22;2619;47.868;11.892;2023-08-01T07:48:00;17.70;99.90
5200;DHT22;2619;47.868;11.892;2023-08-01T07:50:26;17.90;99.90
5200;DHT22;2619;47.868;11.892;2023-08-01T07:52:52;18.00;99.90
5200;DHT22;2619;47.868;11.892;2023-08-01T07:55:17;18.00;99.90
5200;DHT22;2619;47.868;11.892;2023-08-01T07:57:44;18.00;99.90
5200;DHT22;2619;47.868;11.892;2023-08-01T08:00:10;18.10;99.90
5200;DHT22;2619;47.868;11.892;2023-08-01T08:02:36;18.20;99.90
5200;DHT22;2619;47.868;11.892;2023-08-01T08:05:01;18.30;99.90
5200;DHT22;2619;47.868;11.892;2023-08-01T08:07:27;18.50;99.90
5200;DHT22;2619;47.868;11.892;2023-08-01T08:09:53;18.60;99.90
5200;DHT22;2619;47.868;11.892;2023-08-01T08:12:20;18.80;99.90
5200;DHT22;2619;47.868;11.892;2023-08-01T08:14:47;19.00;99.90
5200;DHT22;2619;47.868;11.892;2023-08-01T08:17:12;19.20;99.90
5200;DHT22;2619;47.868;11.892;2023-08-01T08:19:38;19.30;99.90
5200;DHT22;2619;47.868;11.892;2023-08-01T08:22:04;19.50;99.90
5200;DHT22;2619;47.868;11.892;2023-08-01T08:24:29;19.70;99.90
5200;DHT22;2619;47.868;11.892;2023-08-01T08:26:55;19.80;99.90
5200;DHT22;2619;47.868;11.892;2023-08-01T08:29:20;20.00;99.90
5200;DHT22;2619;47.868;11.892;2023-08-01T08:31:47;20.30;99.90
5200;DHT22;2619;47.868;11.892;2023-08-01T08:34:12;20.50;99.90
5200;DHT22;2619;47.868;11.892;2023-08-01T08:36:38;20.60;99.90
5200;DHT22;2619;47.868;11.892;2023-08-01T08:39:03;20.70;99.90
5200;DHT22;2619;47.868;11.892;2023-08-01T08:41:33;20.80;99.90
5200;DHT22;2619;47.868;11.892;2023-08-01T08:44:01;20.90;99.90
5200;DHT22;2619;47.868;11.892;2023-08-01T08:46:31;20.80;99.90
5200;DHT22;2619;47.868;11.892;2023-08-01T08:49:00;20.50;99.90
5200;DHT22;2619;47.868;11.892;2023-08-01T08:51:28;20.30;99.90
5200;DHT22;2619;47.868;11.892;2023-08-01T08:53:56;20.10;99.90
5200;DHT22;2619;47.868;11.892;2023-08-01T08:56:23;19.90;99.90
5200;DHT22;2619;47.868;11.892;2023-08-01T08:58:48;19.80;99.90
5200;DHT22;2619;47.868;11.892;2023-08-01T09:01:15;19.80;99.90
5200;DHT22;2619;47.868;11.892;2023-08-01T09:03:41;19.70;99.90
5200;DHT22;2619;47.868;11.892;2023-08-01T09:06:15;19.70;99.90
5200;DHT22;2619;47.868;11.892;2023-08-01T09:08:49;19.70;99.90
5200;DHT22;2619;47.868;11.892;2023-08-01T09:11:16;19.80;99.90
5200;DHT22;2619;47.868;11.892;2023-08-01T09:13:41;19.70;99.90
5200;DHT22;2619;47.868;11.892;2023-08-01T09:16:08;19.40;99.90
5200;DHT22;2619;47.868;11.892;2023-08-01T09:18:35;19.10;99.90
5200;DHT22;2619;47.868;11.892;2023-08-01T09:21:00;18.90;99.90
5200;DHT22;2619;47.868;11.892;2023-08-01T09:23:27;18.90;99.90
5200;DHT22;2619;47.868;11.892;2023-08-01T09:25:53;19.00;99.90
5200;DHT22;2619;47.868;11.892;2023-08-01T09:28:23;19.00;99.90
5200;DHT22;2619;47.868;11.892;2023-08-01T09:30:50;19.10;99.90
5200;DHT22;2619;47.868;11.892;2023-08-01T09:33:17;19.20;99.90
5200;DHT22;2619;47.868;11.892;2023-08-01T09:35:45;19.40;99.90
5200;DHT22;2619;47.868;11.892;2023-08-01T09:38:14;19.60;99.90
5200;DHT22;2619;47.868;11.892;2023-08-01T09:40:44;19.70;99.90
5200;DHT22;2619;47.868;11.892;2023-08-01T09:43:11;19.80;99.90
5200;DHT22;2619;47.868;11.892;2023-08-01T09:45:36;19.60;99.90
5200;DHT22;2619;47.868;11.892;2023-08-01T09:48:02;19.60;99.90
5200;DHT22;2619;47.868;11.892;2023-08-01T09:50:28;19.70;99.90
5200;DHT22;2619;47.868;11.892;2023-08-01T09:52:54;19.80;99.90
5200;DHT22;2619;47.868;11.892;2023-08-01T09:55:31;20.30;99.90
5200;DHT22;2619;47.868;11.892;2023-08-01T09:57:58;20.90;99.90
5200;DHT22;2619;47.868;11.892;2023-08-01T10:00:26;21.40;99.90
5200;DHT22;2619;47.868;11.892;2023-08-01T10:02:52;21.60;99.90
5200;DHT22;2619;47.868;11.892;2023-08-01T10:05:19;21.80;99.90
5200;DHT22;2619;47.868;11.892;2023-08-01T10:07:45;22.00;99.90
5200;DHT22;2619;47.868;11.892;2023-08-01T10:10:13;22.40;99.90
5200;DHT22;2619;47.868;11.892;2023-08-01T10:12:39;22.90;99.90
5200;DHT22;2619;47.868;11.892;2023-08-01T10:15:08;23.20;99.90
5200;DHT22;2619;47.868;11.892;2023-08-01T10:17:35;23.10;99.90
5200;DHT22;2619;47.868;11.892;2023-08-01T10:20:02;22.70;99.90
5200;DHT22;2619;47.868;11.892;2023-08-01T10:22:29;22.30;99.90
5200;DHT22;2619;47.868;11.892;2023-08-01T10:24:55;22.10;99.90
5200;DHT22;2619;47.868;11.892;2023-08-01T10:27:21;21.80;99.90
5200;DHT22;2619;47.868;11.892;2023-08-01T10:30:01;21.70;99.90
5200;DHT22;2619;47.868;11.892;2023-08-01T10:32:35;21.60;99.90
5200;DHT22;2619;47.868;11.892;2023-08-01T10:35:01;21.50;99.90
5200;DHT22;2619;47.868;11.892;2023-08-01T10:37:41;21.50;99.90
5200;DHT22;2619;47.868;11.892;2023-08-01T10:40:08;21.50;99.90
5200;DHT22;2619;47.868;11.892;2023-08-01T10:42:38;21.50;99.90
5200;DHT22;2619;47.868;11.892;2023-08-01T10:45:04;21.30;99.90
5200;DHT22;2619;47.868;11.892;2023-08-01T10:47:29;21.20;99.90
5200;DHT22;2619;47.868;11.892;2023-08-01T10:49:57;21.10;99.90
5200;DHT22;2619;47.868;11.892;2023-08-01T10:52:26;21.00;99.90
5200;DHT22;2619;47.868;11.892;2023-08-01T10:55:03;21.10;99.90
5200;DHT22;2619;47.868;11.892;2023-08-01T10:57:30;21.40;99.90
5200;DHT22;2619;47.868;11.892;2023-08-01T10:59:58;21.40;99.90
5200;DHT22;2619;47.868;11.892;2023-08-01T11:02:26;21.10;99.90
5200;DHT22;2619;47.868;11.892;2023-08-01T11:04:56;20.50;99.90
5200;DHT22;2619;47.868;11.892;2023-08-01T11:07:22;20.00;99.90
5200;DHT22;2619;47.868;11.892;2023-08-01T11:09:48;19.50;99.90
5200;DHT22;2619;47.868;11.892;2023-08-01T11:12:14;19.20;99.90
5200;DHT22;2619;47.868;11.892;2023-08-01T11:14:39;18.90;99.90
5200;DHT22;2619;47.868;11.892;2023-08-01T11:17:05;18.80;99.90
5200;DHT22;2619;47.868;11.892;2023-08-01T11:19:31;18.70;99.90
5200;DHT22;2619;47.868;11.892;2023-08-01T11:21:57;18.80;99.90
5200;DHT22;2619;47.868;11.892;2023-08-01T11:24:24;19.00;99.90
5200;DHT22;2619;47.868;11.892;2023-08-01T11:26:51;19.00;99.90
5200;DHT22;2619;47.868;11.892;2023-08-01T11:29:18;19.00;99.90
5200;DHT22;2619;47.868;11.892;2023-08-01T11:31:57;19.00;99.90
5200;DHT22;2619;47.868;11.892;2023-08-01T11:34:23;19.00;99.90
5200;DHT22;2619;47.868;11.892;2023-08-01T11:36:50;18.80;99.90
5200;DHT22;2619;47.868;11.892;2023-08-01T11:39:16;18.60;99.90
5200;DHT22;2619;47.868;11.892;2023-08-01T11:41:43;18.60;99.90
5200;DHT22;2619;47.868;11.892;2023-08-01T11:44:08;18.40;99.90
5200;DHT22;2619;47.868;11.892;2023-08-01T11:46:37;18.30;99.90
5200;DHT22;2619;47.868;11.892;2023-08-01T11:49:03;18.30;99.90
5200;DHT22;2619;47.868;11.892;2023-08-01T11:51:29;18.20;99.90
5200;DHT22;2619;47.868;11.892;2023-08-01T11:54:02;18.10;99.90
5200;DHT22;2619;47.868;11.892;2023-08-01T11:56:28;18.20;99.90
5200;DHT22;2619;47.868;11.892;2023-08-01T11:58:54;18.10;99.90
5200;DHT22;2619;47.868;11.892;2023-08-01T12:01:20;18.10;99.90
5200;DHT22;2619;47.868;11.892;2023-08-01T12:06:13;18.50;99.90
5200;DHT22;2619;47.868;11.892;2023-08-01T12:08:40;18.70;99.90
5200;DHT22;2619;47.868;11.892;2023-08-01T12:11:19;18.90;99.90
5200;DHT22;2619;47.868;11.892;2023-08-01T12:13:46;19.00;99.90
5200;DHT22;2619;47.868;11.892;2023-08-01T12:16:11;19.00;99.90
5200;DHT22;2619;47.868;11.892;2023-08-01T12:18:39;19.10;99.90
5200;DHT22;2619;47.868;11.892;2023-08-01T12:21:04;19.00;99.90
5200;DHT22;2619;47.868;11.892;2023-08-01T12:23:31;18.90;99.90
5200;DHT22;2619;47.868;11.892;2023-08-01T12:25:56;18.90;99.90
5200;DHT22;2619;47.868;11.892;2023-08-01T12:28:22;19.00;99.90
5200;DHT22;2619;47.868;11.892;2023-08-01T12:30:48;19.10;99.90
5200;DHT22;2619;47.868;11.892;2023-08-01T12:33:14;19.00;99.90
5200;DHT22;2619;47.868;11.892;2023-08-01T12:35:40;19.00;99.90
5200;DHT22;2619;47.868;11.892;2023-08-01T12:38:07;19.30;99.90
5200;DHT22;2619;47.868;11.892;2023-08-01T12:40:32;19.50;99.90
5200;DHT22;2619;47.868;11.892;2023-08-01T12:42:58;20.00;99.90
5200;DHT22;2619;47.868;11.892;2023-08-01T12:45:24;20.50;99.90
5200;DHT22;2619;47.868;11.892;2023-08-01T12:47:50;20.70;99.90
5200;DHT22;2619;47.868;11.892;2023-08-01T12:50:15;20.30;99.90
5200;DHT22;2619;47.868;11.892;2023-08-01T12:52:41;20.50;99.90
5200;DHT22;2619;47.868;11.892;2023-08-01T12:55:07;20.60;99.90
5200;DHT22;2619;47.868;11.892;2023-08-01T12:57:33;20.80;99.90
5200;DHT22;2619;47.868;11.892;2023-08-01T12:59:59;21.30;99.90
5200;DHT22;2619;47.868;11.892;2023-08-01T13:02:26;21.80;99.90
5200;DHT22;2619;47.868;11.892;2023-08-01T13:04:51;22.10;99.90
5200;DHT22;2619;47.868;11.892;2023-08-01T13:07:17;22.60;99.90
5200;DHT22;2619;47.868;11.892;2023-08-01T13:09:42;22.90;99.90
5200;DHT22;2619;47.868;11.892;2023-08-01T13:12:08;23.10;99.90
5200;DHT22;2619;47.868;11.892;2023-08-01T13:14:33;23.30;99.90
5200;DHT22;2619;47.868;11.892;2023-08-01T13:16:59;23.10;99.90
5200;DHT22;2619;47.868;11.892;2023-08-01T13:19:25;22.90;99.90
5200;DHT22;2619;47.868;11.892;2023-08-01T13:21:51;22.70;99.90
5200;DHT22;2619;47.868;11.892;2023-08-01T13:24:17;22.50;99.90
5200;DHT22;2619;47.868;11.892;2023-08-01T13:26:42;22.60;99.90
5200;DHT22;2619;47.868;11.892;2023-08-01T13:29:08;22.60;99.90
5200;DHT22;2619;47.868;11.892;2023-08-01T13:31:33;22.70;99.90
5200;DHT22;2619;47.868;11.892;2023-08-01T13:33:59;22.80;99.90
5200;DHT22;2619;47.868;11.892;2023-08-01T13:36:24;23.20;99.90
5200;DHT22;2619;47.868;11.892;2023-08-01T13:38:50;23.50;99.90
5200;DHT22;2619;47.868;11.892;2023-08-01T13:41:16;23.70;99.90
5200;DHT22;2619;47.868;11.892;2023-08-01T13:43:41;23.70;99.90
5200;DHT22;2619;47.868;11.892;2023-08-01T13:46:15;23.80;99.90
5200;DHT22;2619;47.868;11.892;2023-08-01T13:48:42;23.60;99.90
5200;DHT22;2619;47.868;11.892;2023-08-01T13:51:07;23.30;99.90
5200;DHT22;2619;47.868;11.892;2023-08-01T13:53:33;23.10;99.90
5200;DHT22;2619;47.868;11.892;2023-08-01T13:55:59;23.10;99.90
5200;DHT22;2619;47.868;11.892;2023-08-01T13:58:25;23.00;99.90
5200;DHT22;2619;47.868;11.892;2023-08-01T14:00:50;22.90;99.90
5200;DHT22;2619;47.868;11.892;2023-08-01T14:03:16;22.70;99.90
5200;DHT22;2619;47.868;11.892;2023-08-01T14:05:41;22.60;99.90
5200;DHT22;2619;47.868;11.892;2023-08-01T14:08:07;22.40;99.90
5200;DHT22;2619;47.868;11.892;2023-08-01T14:10:33;22.20;99.90
5200;DHT22;2619;47.868;11.892;2023-08-01T14:12:58;22.00;99.90
5200;DHT22;2619;47.868;11.892;2023-08-01T14:15:24;21.80;99.90
5200;DHT22;2619;47.868;11.892;2023-08-01T14:17:49;21.90;99.90
5200;DHT22;2619;47.868;11.892;2023-08-01T14:20:15;22.00;99.90
5200;DHT22;2619;47.868;11.892;2023-08-01T14:22:41;22.10;99.90
5200;DHT22;2619;47.868;11.892;2023-08-01T14:25:08;21.90;99.90
5200;DHT22;2619;47.868;11.892;2023-08-01T14:27:34;21.70;99.90
5200;DHT22;2619;47.868;11.892;2023-08-01T14:30:00;21.80;99.90
5200;DHT22;2619;47.868;11.892;2023-08-01T14:32:25;22.10;99.90
5200;DHT22;2619;47.868;11.892;2023-08-01T14:34:51;22.10;99.90
5200;DHT22;2619;47.868;11.892;2023-08-01T14:37:16;22.20;99.90
5200;DHT22;2619;47.868;11.892;2023-08-01T14:39:42;22.50;99.90
5200;DHT22;2619;47.868;11.892;2023-08-01T14:42:08;22.60;99.90
5200;DHT22;2619;47.868;11.892;2023-08-01T14:44:33;22.80;99.90
5200;DHT22;2619;47.868;11.892;2023-08-01T14:46:59;22.90;99.90
5200;DHT22;2619;47.868;11.892;2023-08-01T14:49:24;22.70;99.90
5200;DHT22;2619;47.868;11.892;2023-08-01T14:51:53;22.40;99.90
5200;DHT22;2619;47.868;11.892;2023-08-01T14:54:18;22.10;99.90
5200;DHT22;2619;47.868;11.892;2023-08-01T14:56:44;22.00;99.90
5200;DHT22;2619;47.868;11.892;2023-08-01T14:59:10;21.90;99.90
5200;DHT22;2619;47.868;11.892;2023-08-01T15:01:35;21.90;99.90
5200;DHT22;2619;47.868;11.892;2023-08-01T15:04:01;22.00;99.90
5200;DHT22;2619;47.868;11.892;2023-08-01T15:06:26;21.80;99.90
5200;DHT22;2619;47.868;11.892;2023-08-01T15:08:52;21.70;99.90
5200;DHT22;2619;47.868;11.892;2023-08-01T15:11:18;21.90;99.90
5200;DHT22;2619;47.868;11.892;2023-08-01T15:13:43;21.90;99.90
5200;DHT22;2619;47.868;11.892;2023-08-01T15:16:10;21.90;99.90
5200;DHT22;2619;47.868;11.892;2023-08-01T15:18:36;22.00;99.90
5200;DHT22;2619;47.868;11.892;2023-08-01T15:21:02;22.00;99.90
5200;DHT22;2619;47.868;11.892;2023-08-01T15:23:28;22.00;99.90
5200;DHT22;2619;47.868;11.892;2023-08-01T15:25:57;21.80;99.90
5200;DHT22;2619;47.868;11.892;2023-08-01T15:28:24;21.70;99.90
5200;DHT22;2619;47.868;11.892;2023-08-01T15:31:00;21.70;99.90
5200;DHT22;2619;47.868;11.892;2023-08-01T15:33:26;21.70;99.90
5200;DHT22;2619;47.868;11.892;2023-08-01T15:36:06;21.70;99.90
5200;DHT22;2619;47.868;11.892;2023-08-01T15:38:33;21.70;99.90
5200;DHT22;2619;47.868;11.892;2023-08-01T15:41:00;21.60;99.90
5200;DHT22;2619;47.868;11.892;2023-08-01T15:43:32;21.20;99.90